sensor_id;sensor_type;location;lat;lon;timestamp;temperature;humidity
54260;DHT22;40172;53.022;7.012;2024-03-08T00:01:31;0.70;99.90
54260;DHT22;40172;53.022;7.012;2024-03-08T00:03:57;0.40;99.90
54260;DHT22;40172;53.022;7.012;2024-03-08T00:06:22;1.80;99.90
54260;DHT22;40172;53.022;7.012;2024-03-08T00:08:48;0.80;99.90
54260;DHT22;40172;53.022;7.012;2024-03-08T00:11:14;1.30;99.90
54260;DHT22;40172;53.022;7.012;2024-03-08T00:13:39;0.30;99.90
54260;DHT22;40172;53.022;7.012;2024-03-08T00:16:05;0.30;99.90
54260;DHT22;40172;53.022;7.012;2024-03-08T00:18:31;0.70;99.90
54260;DHT22;40172;53.022;7.012;2024-03-08T00:20:56;0.60;99.90
54260;DHT22;40172;53.022;7.012;2024-03-08T00:23:22;0.60;99.90
54260;DHT22;40172;53.022;7.012;2024-03-08T00:25:48;0.60;99.90
54260;DHT22;40172;53.022;7.012;2024-03-08T00:28:14;0.60;99.90
54260;DHT22;40172;53.022;7.012;2024-03-08T00:30:42;0.50;99.90
54260;DHT22;40172;53.022;7.012;2024-03-08T00:33:08;0.50;99.90
54260;DHT22;40172;53.022;7.012;2024-03-08T00:35:34;0.50;99.90
54260;DHT22;40172;53.022;7.012;2024-03-08T00:37:59;0.40;99.90
54260;DHT22;40172;53.022;7.012;2024-03-08T00:40:25;0.40;99.90
54260;DHT22;40172;53.022;7.012;2024-03-08T00:42:51;0.40;99.90
54260;DHT22;40172;53.022;7.012;2024-03-08T00:45:18;1.70;99.90
54260;DHT22;40172;53.022;7.012;2024-03-08T00:47:44;1.90;99.90
54260;DHT22;40172;53.022;7.012;2024-03-08T00:50:10;0.40;99.90
54260;DHT22;40172;53.022;7.012;2024-03-08T00:52:36;1.40;99.90
54260;DHT22;40172;53.022;7.012;2024-03-08T00:55:02;-0.10;99.90
54260;DHT22;40172;53.022;7.012;2024-03-08T00:57:28;0.40;99.90
54260;DHT22;40172;53.022;7.012;2024-03-08T00:59:54;0.40;99.90
54260;DHT22;40172;53.022;7.012;2024-03-08T01:02:19;0.40;99.90
54260;DHT22;40172;53.022;7.012;2024-03-08T01:04:46;0.30;99.90
54260;DHT22;40172;53.022;7.012;2024-03-08T01:07:12;2.00;99.90
54260;DHT22;40172;53.022;7.012;2024-03-08T01:09:38;0.30;99.90
54260;DHT22;40172;53.022;7.012;2024-03-08T01:12:04;0.30;99.90
54260;DHT22;40172;53.022;7.012;2024-03-08T01:14:33;0.20;99.90
54260;DHT22;40172;53.022;7.012;2024-03-08T01:16:58;0.20;99.90
54260;DHT22;40172;53.022;7.012;2024-03-08T01:19:24;0.30;99.90
54260;DHT22;40172;53.022;7.012;2024-03-08T01:21:50;0.30;99.90
54260;DHT22;40172;53.022;7.012;2024-03-08T01:24:16;0.20;99.90
54260;DHT22;40172;53.022;7.012;2024-03-08T01:26:42;0.00;99.90
54260;DHT22;40172;53.022;7.012;2024-03-08T01:29:08;0.30;99.90
54260;DHT22;40172;53.022;7.012;2024-03-08T01:31:34;1.00;99.90
54260;DHT22;40172;53.022;7.012;2024-03-08T01:34:02;0.30;99.90
54260;DHT22;40172;53.022;7.012;2024-03-08T01:36:27;0.30;99.90
54260;DHT22;40172;53.022;7.012;2024-03-08T01:38:53;0.30;99.90
54260;DHT22;40172;53.022;7.012;2024-03-08T01:41:19;0.30;99.90
54260;DHT22;40172;53.022;7.012;2024-03-08T01:43:45;0.30;99.90
54260;DHT22;40172;53.022;7.012;2024-03-08T01:46:12;0.20;99.90
54260;DHT22;40172;53.022;7.012;2024-03-08T01:48:40;0.20;99.90
54260;DHT22;40172;53.022;7.012;2024-03-08T01:51:07;1.30;99.90
54260;DHT22;40172;53.022;7.012;2024-03-08T01:53:34;0.20;99.90
54260;DHT22;40172;53.022;7.012;2024-03-08T01:56:01;0.20;99.90
54260;DHT22;40172;53.022;7.012;2024-03-08T01:58:29;0.20;99.90
54260;DHT22;40172;53.022;7.012;2024-03-08T02:00:56;0.20;99.90
54260;DHT22;40172;53.022;7.012;2024-03-08T02:03:22;0.20;99.90
54260;DHT22;40172;53.022;7.012;2024-03-08T02:05:49;0.10;99.90
54260;DHT22;40172;53.022;7.012;2024-03-08T02:08:15;0.00;99.90
54260;DHT22;40172;53.022;7.012;2024-03-08T02:10:43;0.10;99.90
54260;DHT22;40172;53.022;7.012;2024-03-08T02:13:09;0.10;99.90
54260;DHT22;40172;53.022;7.012;2024-03-08T02:15:55;0.10;99.90
54260;DHT22;40172;53.022;7.012;2024-03-08T02:18:21;1.60;99.90
54260;DHT22;40172;53.022;7.012;2024-03-08T02:20:49;0.10;99.90
54260;DHT22;40172;53.022;7.012;2024-03-08T02:23:15;0.10;99.90
54260;DHT22;40172;53.022;7.012;2024-03-08T02:25:40;0.00;99.90
54260;DHT22;40172;53.022;7.012;2024-03-08T02:28:12;0.10;99.90
54260;DHT22;40172;53.022;7.012;2024-03-08T02:30:38;1.00;99.90
54260;DHT22;40172;53.022;7.012;2024-03-08T02:33:05;1.60;99.90
54260;DHT22;40172;53.022;7.012;2024-03-08T02:35:31;0.00;99.90
54260;DHT22;40172;53.022;7.012;2024-03-08T02:37:57;-0.10;99.90
54260;DHT22;40172;53.022;7.012;2024-03-08T02:40:23;1.30;99.90
54260;DHT22;40172;53.022;7.012;2024-03-08T02:42:49;-0.10;99.90
54260;DHT22;40172;53.022;7.012;2024-03-08T02:45:15;-0.10;99.90
54260;DHT22;40172;53.022;7.012;2024-03-08T02:47:40;1.50;99.90
54260;DHT22;40172;53.022;7.012;2024-03-08T02:50:07;-0.10;99.90
54260;DHT22;40172;53.022;7.012;2024-03-08T02:52:35;-0.20;99.90
54260;DHT22;40172;53.022;7.012;2024-03-08T02:55:02;-0.20;99.90
54260;DHT22;40172;53.022;7.012;2024-03-08T02:57:27;-0.20;99.90
54260;DHT22;40172;53.022;7.012;2024-03-08T02:59:54;-0.20;99.90
54260;DHT22;40172;53.022;7.012;2024-03-08T03:02:20;-0.20;99.90
54260;DHT22;40172;53.022;7.012;2024-03-08T03:04:46;0.20;99.90
54260;DHT22;40172;53.022;7.012;2024-03-08T03:07:12;-0.20;99.90
54260;DHT22;40172;53.022;7.012;2024-03-08T03:09:38;-0.30;99.90
54260;DHT22;40172;53.022;7.012;2024-03-08T03:12:03;-0.30;99.90
54260;DHT22;40172;53.022;7.012;2024-03-08T03:14:29;-0.20;99.90
54260;DHT22;40172;53.022;7.012;2024-03-08T03:16:54;-0.30;99.90
54260;DHT22;40172;53.022;7.012;2024-03-08T03:19:20;-0.40;99.90
54260;DHT22;40172;53.022;7.012;2024-03-08T03:21:46;-0.40;99.90
54260;DHT22;40172;53.022;7.012;2024-03-08T03:24:12;-0.40;99.90
54260;DHT22;40172;53.022;7.012;2024-03-08T03:26:41;-0.50;99.90
54260;DHT22;40172;53.022;7.012;2024-03-08T03:29:09;-1.70;99.90
54260;DHT22;40172;53.022;7.012;2024-03-08T03:31:36;-0.50;99.90
54260;DHT22;40172;53.022;7.012;2024-03-08T03:34:02;-0.60;99.90
54260;DHT22;40172;53.022;7.012;2024-03-08T03:36:32;-0.50;99.90
54260;DHT22;40172;53.022;7.012;2024-03-08T03:38:58;-0.60;99.90
54260;DHT22;40172;53.022;7.012;2024-03-08T03:41:50;1.00;99.90
54260;DHT22;40172;53.022;7.012;2024-03-08T03:44:17;-0.60;99.90
54260;DHT22;40172;53.022;7.012;2024-03-08T03:46:43;-0.60;99.90
54260;DHT22;40172;53.022;7.012;2024-03-08T03:49:12;-0.60;99.90
54260;DHT22;40172;53.022;7.012;2024-03-08T03:51:38;-0.90;99.90
54260;DHT22;40172;53.022;7.012;2024-03-08T03:54:04;0.20;99.90
54260;DHT22;40172;53.022;7.012;2024-03-08T03:56:30;-0.60;99.90
54260;DHT22;40172;53.022;7.012;2024-03-08T03:58:56;-0.60;99.90
54260;DHT22;40172;53.022;7.012;2024-03-08T04:01:22;-0.60;99.90
54260;DHT22;40172;53.022;7.012;2024-03-08T04:03:47;-0.60;99.90
54260;DHT22;40172;53.022;7.012;2024-03-08T04:06:13;-0.60;99.90
54260;DHT22;40172;53.022;7.012;2024-03-08T04:08:40;-0.60;99.90
54260;DHT22;40172;53.022;7.012;2024-03-08T04:11:09;-0.50;99.90
54260;DHT22;40172;53.022;7.012;2024-03-08T04:13:36;-0.50;99.90
54260;DHT22;40172;53.022;7.012;2024-03-08T04:16:02;-0.50;99.90
54260;DHT22;40172;53.022;7.012;2024-03-08T04:18:28;-0.50;99.90
54260;DHT22;40172;53.022;7.012;2024-03-08T04:20:54;-0.90;99.90
54260;DHT22;40172;53.022;7.012;2024-03-08T04:23:19;-0.50;99.90
54260;DHT22;40172;53.022;7.012;2024-03-08T04:25:45;-0.50;99.90
54260;DHT22;40172;53.022;7.012;2024-03-08T04:28:11;-0.50;99.90
54260;DHT22;40172;53.022;7.012;2024-03-08T04:30:38;-0.50;99.90
54260;DHT22;40172;53.022;7.012;2024-03-08T04:33:05;-0.90;99.90
54260;DHT22;40172;53.022;7.012;2024-03-08T04:35:32;-0.70;99.90
54260;DHT22;40172;53.022;7.012;2024-03-08T04:37:58;-0.50;99.90
54260;DHT22;40172;53.022;7.012;2024-03-08T04:40:24;-0.60;99.90
54260;DHT22;40172;53.022;7.012;2024-03-08T04:42:50;-0.60;99.90
54260;DHT22;40172;53.022;7.012;2024-03-08T04:45:17;-0.60;99.90
54260;DHT22;40172;53.022;7.012;2024-03-08T04:47:42;-0.60;99.90
54260;DHT22;40172;53.022;7.012;2024-03-08T04:50:09;-0.60;99.90
54260;DHT22;40172;53.022;7.012;2024-03-08T04:52:35;-0.60;99.90
54260;DHT22;40172;53.022;7.012;2024-03-08T04:55:01;-0.60;99.90
54260;DHT22;40172;53.022;7.012;2024-03-08T04:57:30;-0.60;99.90
54260;DHT22;40172;53.022;7.012;2024-03-08T04:59:55;-0.60;99.90
54260;DHT22;40172;53.022;7.012;2024-03-08T05:02:21;-0.70;99.90
54260;DHT22;40172;53.022;7.012;2024-03-08T05:04:48;-0.60;99.90
54260;DHT22;40172;53.022;7.012;2024-03-08T05:07:14;-0.70;99.90
54260;DHT22;40172;53.022;7.012;2024-03-08T05:09:39;-0.70;99.90
54260;DHT22;40172;53.022;7.012;2024-03-08T05:12:06;-0.70;99.90
54260;DHT22;40172;53.022;7.012;2024-03-08T05:14:33;-0.20;99.90
54260;DHT22;40172;53.022;7.012;2024-03-08T05:17:00;-0.70;99.90
54260;DHT22;40172;53.022;7.012;2024-03-08T05:19:26;-0.70;99.90
54260;DHT22;40172;53.022;7.012;2024-03-08T05:21:52;-0.70;99.90
54260;DHT22;40172;53.022;7.012;2024-03-08T05:24:18;-0.70;99.90
54260;DHT22;40172;53.022;7.012;2024-03-08T05:26:44;-0.70;99.90
54260;DHT22;40172;53.022;7.012;2024-03-08T05:29:10;-0.70;99.90
54260;DHT22;40172;53.022;7.012;2024-03-08T05:31:43;-0.70;99.90
54260;DHT22;40172;53.022;7.012;2024-03-08T05:34:11;-0.70;99.90
54260;DHT22;40172;53.022;7.012;2024-03-08T05:36:40;0.50;99.90
54260;DHT22;40172;53.022;7.012;2024-03-08T05:39:06;-0.80;99.90
54260;DHT22;40172;53.022;7.012;2024-03-08T05:41:32;-0.80;99.90
54260;DHT22;40172;53.022;7.012;2024-03-08T05:43:58;-0.80;99.90
54260;DHT22;40172;53.022;7.012;2024-03-08T05:46:24;-0.80;99.90
54260;DHT22;40172;53.022;7.012;2024-03-08T05:48:49;-0.80;99.90
54260;DHT22;40172;53.022;7.012;2024-03-08T05:51:15;-0.80;99.90
54260;DHT22;40172;53.022;7.012;2024-03-08T05:53:41;-0.80;99.90
54260;DHT22;40172;53.022;7.012;2024-03-08T05:56:07;-0.80;99.90
54260;DHT22;40172;53.022;7.012;2024-03-08T05:58:34;-0.90;99.90
54260;DHT22;40172;53.022;7.012;2024-03-08T06:01:00;-0.70;99.90
54260;DHT22;40172;53.022;7.012;2024-03-08T06:03:26;-0.70;99.90
54260;DHT22;40172;53.022;7.012;2024-03-08T06:05:51;-0.70;99.90
54260;DHT22;40172;53.022;7.012;2024-03-08T06:08:17;-0.70;99.90
54260;DHT22;40172;53.022;7.012;2024-03-08T06:10:44;-0.70;99.90
54260;DHT22;40172;53.022;7.012;2024-03-08T06:13:10;-0.70;99.90
54260;DHT22;40172;53.022;7.012;2024-03-08T06:15:37;-0.70;99.90
54260;DHT22;40172;53.022;7.012;2024-03-08T06:18:03;-0.70;99.90
54260;DHT22;40172;53.022;7.012;2024-03-08T06:20:31;-0.70;99.90
54260;DHT22;40172;53.022;7.012;2024-03-08T06:22:56;-0.80;99.90
54260;DHT22;40172;53.022;7.012;2024-03-08T06:25:22;-0.70;99.90
54260;DHT22;40172;53.022;7.012;2024-03-08T06:27:48;-0.70;99.90
54260;DHT22;40172;53.022;7.012;2024-03-08T06:30:13;-0.70;99.90
54260;DHT22;40172;53.022;7.012;2024-03-08T06:32:41;-0.70;99.90
54260;DHT22;40172;53.022;7.012;2024-03-08T06:35:08;-0.70;99.90
54260;DHT22;40172;53.022;7.012;2024-03-08T06:37:36;-0.60;99.90
54260;DHT22;40172;53.022;7.012;2024-03-08T06:40:02;-0.70;99.90
54260;DHT22;40172;53.022;7.012;2024-03-08T06:42:33;-0.60;99.90
54260;DHT22;40172;53.022;7.012;2024-03-08T06:45:01;-0.60;99.90
54260;DHT22;40172;53.022;7.012;2024-03-08T06:47:33;-0.60;99.90
54260;DHT22;40172;53.022;7.012;2024-03-08T06:50:00;-0.50;99.90
54260;DHT22;40172;53.022;7.012;2024-03-08T06:52:25;-0.50;99.90
54260;DHT22;40172;53.022;7.012;2024-03-08T06:54:51;-0.50;99.90
54260;DHT22;40172;53.022;7.012;2024-03-08T06:57:18;-0.40;99.90
54260;DHT22;40172;53.022;7.012;2024-03-08T06:59:45;-0.40;99.90
54260;DHT22;40172;53.022;7.012;2024-03-08T07:02:10;-0.30;99.90
54260;DHT22;40172;53.022;7.012;2024-03-08T07:04:36;-0.30;99.90
54260;DHT22;40172;53.022;7.012;2024-03-08T07:07:06;-0.30;99.90
54260;DHT22;40172;53.022;7.012;2024-03-08T07:09:36;-1.60;99.90
54260;DHT22;40172;53.022;7.012;2024-03-08T07:12:02;-0.50;99.90
54260;DHT22;40172;53.022;7.012;2024-03-08T07:14:27;-0.10;99.90
54260;DHT22;40172;53.022;7.012;2024-03-08T07:16:54;-0.10;99.90
54260;DHT22;40172;53.022;7.012;2024-03-08T07:19:20;0.00;99.90
54260;DHT22;40172;53.022;7.012;2024-03-08T07:21:47;0.00;99.90
54260;DHT22;40172;53.022;7.012;2024-03-08T07:24:13;0.10;99.90
54260;DHT22;40172;53.022;7.012;2024-03-08T07:26:45;0.00;99.90
54260;DHT22;40172;53.022;7.012;2024-03-08T07:29:15;0.20;99.90
54260;DHT22;40172;53.022;7.012;2024-03-08T07:31:41;0.30;99.90
54260;DHT22;40172;53.022;7.012;2024-03-08T07:34:06;0.40;99.90
54260;DHT22;40172;53.022;7.012;2024-03-08T07:36:34;0.40;99.90
54260;DHT22;40172;53.022;7.012;2024-03-08T07:39:00;1.70;99.90
54260;DHT22;40172;53.022;7.012;2024-03-08T07:41:26;0.50;99.90
54260;DHT22;40172;53.022;7.012;2024-03-08T07:43:52;0.20;99.90
54260;DHT22;40172;53.022;7.012;2024-03-08T07:46:17;0.10;99.90
54260;DHT22;40172;53.022;7.012;2024-03-08T07:48:44;0.50;99.90
54260;DHT22;40172;53.022;7.012;2024-03-08T07:51:10;0.70;99.90
54260;DHT22;40172;53.022;7.012;2024-03-08T07:53:37;0.80;99.90
54260;DHT22;40172;53.022;7.012;2024-03-08T07:56:04;0.90;99.90
54260;DHT22;40172;53.022;7.012;2024-03-08T07:58:33;1.00;99.90
54260;DHT22;40172;53.022;7.012;2024-03-08T08:00:58;1.00;99.90
54260;DHT22;40172;53.022;7.012;2024-03-08T08:03:24;1.10;99.90
54260;DHT22;40172;53.022;7.012;2024-03-08T08:05:50;1.20;99.90
54260;DHT22;40172;53.022;7.012;2024-03-08T08:08:16;1.90;99.90
54260;DHT22;40172;53.022;7.012;2024-03-08T08:10:42;1.30;99.90
54260;DHT22;40172;53.022;7.012;2024-03-08T08:13:07;1.40;99.90
54260;DHT22;40172;53.022;7.012;2024-03-08T08:15:33;1.40;99.90
54260;DHT22;40172;53.022;7.012;2024-03-08T08:18:01;1.50;99.90
54260;DHT22;40172;53.022;7.012;2024-03-08T08:20:31;1.60;99.90
54260;DHT22;40172;53.022;7.012;2024-03-08T08:22:57;1.60;99.90
54260;DHT22;40172;53.022;7.012;2024-03-08T08:25:24;2.40;99.90
54260;DHT22;40172;53.022;7.012;2024-03-08T08:27:50;1.80;99.90
54260;DHT22;40172;53.022;7.012;2024-03-08T08:30:15;1.70;99.90
54260;DHT22;40172;53.022;7.012;2024-03-08T08:32:41;1.90;99.90
54260;DHT22;40172;53.022;7.012;2024-03-08T08:35:09;2.00;99.90
54260;DHT22;40172;53.022;7.012;2024-03-08T08:37:35;2.00;99.90
54260;DHT22;40172;53.022;7.012;2024-03-08T08:40:04;2.10;99.90
54260;DHT22;40172;53.022;7.012;2024-03-08T08:42:34;2.20;99.90
54260;DHT22;40172;53.022;7.012;2024-03-08T08:45:00;2.20;99.90
54260;DHT22;40172;53.022;7.012;2024-03-08T08:47:27;2.30;99.90
54260;DHT22;40172;53.022;7.012;2024-03-08T08:49:52;2.30;99.90
54260;DHT22;40172;53.022;7.012;2024-03-08T08:52:19;4.10;99.90
54260;DHT22;40172;53.022;7.012;2024-03-08T08:54:45;3.70;99.90
54260;DHT22;40172;53.022;7.012;2024-03-08T08:57:11;2.60;99.90
54260;DHT22;40172;53.022;7.012;2024-03-08T08:59:37;3.40;99.90
54260;DHT22;40172;53.022;7.012;2024-03-08T09:02:06;2.30;99.90
54260;DHT22;40172;53.022;7.012;2024-03-08T09:04:32;4.20;99.90
54260;DHT22;40172;53.022;7.012;2024-03-08T09:06:58;3.20;99.90
54260;DHT22;40172;53.022;7.012;2024-03-08T09:09:23;4.00;99.90
54260;DHT22;40172;53.022;7.012;2024-03-08T09:11:51;3.00;99.90
54260;DHT22;40172;53.022;7.012;2024-03-08T09:14:16;3.10;99.90
54260;DHT22;40172;53.022;7.012;2024-03-08T09:16:42;3.00;99.90
54260;DHT22;40172;53.022;7.012;2024-03-08T09:19:08;3.30;99.90
54260;DHT22;40172;53.022;7.012;2024-03-08T09:21:36;3.30;99.90
54260;DHT22;40172;53.022;7.012;2024-03-08T09:24:02;4.50;99.90
54260;DHT22;40172;53.022;7.012;2024-03-08T09:26:28;3.40;99.90
54260;DHT22;40172;53.022;7.012;2024-03-08T09:28:54;3.40;99.90
54260;DHT22;40172;53.022;7.012;2024-03-08T09:31:22;3.40;99.90
54260;DHT22;40172;53.022;7.012;2024-03-08T09:33:48;3.80;99.90
54260;DHT22;40172;53.022;7.012;2024-03-08T09:36:14;4.80;99.90
54260;DHT22;40172;53.022;7.012;2024-03-08T09:38:40;4.90;99.90
54260;DHT22;40172;53.022;7.012;2024-03-08T09:41:06;3.90;99.90
54260;DHT22;40172;53.022;7.012;2024-03-08T09:43:32;4.30;99.90
54260;DHT22;40172;53.022;7.012;2024-03-08T09:45:58;4.60;99.90
54260;DHT22;40172;53.022;7.012;2024-03-08T09:48:24;5.30;99.90
54260;DHT22;40172;53.022;7.012;2024-03-08T09:50:51;4.40;99.90
54260;DHT22;40172;53.022;7.012;2024-03-08T09:53:17;4.70;99.90
54260;DHT22;40172;53.022;7.012;2024-03-08T09:55:43;4.20;99.90
54260;DHT22;40172;53.022;7.012;2024-03-08T09:58:15;4.40;99.90
54260;DHT22;40172;53.022;7.012;2024-03-08T10:00:54;4.70;99.90
54260;DHT22;40172;53.022;7.012;2024-03-08T10:03:20;5.00;99.90
54260;DHT22;40172;53.022;7.012;2024-03-08T10:05:46;5.20;99.90
54260;DHT22;40172;53.022;7.012;2024-03-08T10:08:12;4.90;99.90
54260;DHT22;40172;53.022;7.012;2024-03-08T10:10:39;5.30;99.90
54260;DHT22;40172;53.022;7.012;2024-03-08T10:13:08;5.20;99.90
54260;DHT22;40172;53.022;7.012;2024-03-08T10:15:35;5.20;99.90
54260;DHT22;40172;53.022;7.012;2024-03-08T10:18:01;5.40;99.90
54260;DHT22;40172;53.022;7.012;2024-03-08T10:20:29;5.40;99.90
54260;DHT22;40172;53.022;7.012;2024-03-08T10:22:59;5.80;99.90
54260;DHT22;40172;53.022;7.012;2024-03-08T10:25:26;5.40;99.90
54260;DHT22;40172;53.022;7.012;2024-03-08T10:27:51;5.60;99.90
54260;DHT22;40172;53.022;7.012;2024-03-08T10:30:17;5.60;99.90
54260;DHT22;40172;53.022;7.012;2024-03-08T10:32:45;5.70;99.90
54260;DHT22;40172;53.022;7.012;2024-03-08T10:35:12;5.80;99.90
54260;DHT22;40172;53.022;7.012;2024-03-08T10:37:57;5.90;99.90
54260;DHT22;40172;53.022;7.012;2024-03-08T10:40:25;6.00;99.90
54260;DHT22;40172;53.022;7.012;2024-03-08T10:42:59;6.80;99.90
54260;DHT22;40172;53.022;7.012;2024-03-08T10:45:37;6.60;99.90
54260;DHT22;40172;53.022;7.012;2024-03-08T10:48:25;6.50;99.90
54260;DHT22;40172;53.022;7.012;2024-03-08T10:50:49;6.50;99.90
54260;DHT22;40172;53.022;7.012;2024-03-08T10:53:18;6.60;99.90
54260;DHT22;40172;53.022;7.012;2024-03-08T10:55:47;6.60;99.90
54260;DHT22;40172;53.022;7.012;2024-03-08T10:58:12;7.40;99.90
54260;DHT22;40172;53.022;7.012;2024-03-08T11:00:38;7.00;99.90
54260;DHT22;40172;53.022;7.012;2024-03-08T11:03:04;6.90;99.90
54260;DHT22;40172;53.022;7.012;2024-03-08T11:05:37;6.90;99.90
54260;DHT22;40172;53.022;7.012;2024-03-08T11:08:24;7.10;99.90
54260;DHT22;40172;53.022;7.012;2024-03-08T11:10:53;7.40;99.90
54260;DHT22;40172;53.022;7.012;2024-03-08T11:13:38;7.10;99.90
54260;DHT22;40172;53.022;7.012;2024-03-08T11:16:36;7.10;99.90
54260;DHT22;40172;53.022;7.012;2024-03-08T11:18:59;7.10;99.90
54260;DHT22;40172;53.022;7.012;2024-03-08T11:21:34;7.20;99.90
54260;DHT22;40172;53.022;7.012;2024-03-08T11:24:06;7.30;99.90
54260;DHT22;40172;53.022;7.012;2024-03-08T11:26:33;7.30;99.90
54260;DHT22;40172;53.022;7.012;2024-03-08T11:34:35;7.40;99.90
54260;DHT22;40172;53.022;7.012;2024-03-08T11:37:04;7.50;99.90
54260;DHT22;40172;53.022;7.012;2024-03-08T11:39:31;7.60;99.90
54260;DHT22;40172;53.022;7.012;2024-03-08T11:41:57;7.60;99.90
54260;DHT22;40172;53.022;7.012;2024-03-08T11:44:26;7.60;99.90
54260;DHT22;40172;53.022;7.012;2024-03-08T11:46:53;7.70;99.90
54260;DHT22;40172;53.022;7.012;2024-03-08T11:49:19;7.70;99.90
54260;DHT22;40172;53.022;7.012;2024-03-08T11:51:45;8.10;99.90
54260;DHT22;40172;53.022;7.012;2024-03-08T11:54:12;7.90;99.90
54260;DHT22;40172;53.022;7.012;2024-03-08T11:56:41;8.00;99.90
54260;DHT22;40172;53.022;7.012;2024-03-08T11:59:12;8.00;99.90
54260;DHT22;40172;53.022;7.012;2024-03-08T12:01:39;8.00;99.90
54260;DHT22;40172;53.022;7.012;2024-03-08T12:04:05;8.00;99.90
54260;DHT22;40172;53.022;7.012;2024-03-08T12:06:41;8.20;99.90
54260;DHT22;40172;53.022;7.012;2024-03-08T12:09:10;8.60;99.90
54260;DHT22;40172;53.022;7.012;2024-03-08T12:11:36;8.50;99.90
54260;DHT22;40172;53.022;7.012;2024-03-08T12:14:03;8.60;99.90
54260;DHT22;40172;53.022;7.012;2024-03-08T12:16:29;8.60;99.90
54260;DHT22;40172;53.022;7.012;2024-03-08T12:18:55;8.70;99.90
54260;DHT22;40172;53.022;7.012;2024-03-08T12:21:21;8.70;99.90
54260;DHT22;40172;53.022;7.012;2024-03-08T12:24:08;8.70;99.90
54260;DHT22;40172;53.022;7.012;2024-03-08T12:26:36;8.80;99.90
54260;DHT22;40172;53.022;7.012;2024-03-08T12:29:15;8.80;99.90
54260;DHT22;40172;53.022;7.012;2024-03-08T12:31:54;8.80;99.90
54260;DHT22;40172;53.022;7.012;2024-03-08T12:34:19;8.90;99.90
54260;DHT22;40172;53.022;7.012;2024-03-08T12:36:50;8.90;99.90
54260;DHT22;40172;53.022;7.012;2024-03-08T12:39:18;9.00;99.90
54260;DHT22;40172;53.022;7.012;2024-03-08T12:41:51;9.10;99.90
54260;DHT22;40172;53.022;7.012;2024-03-08T12:44:17;9.20;99.90
54260;DHT22;40172;53.022;7.012;2024-03-08T12:46:44;9.30;99.90
54260;DHT22;40172;53.022;7.012;2024-03-08T12:49:10;9.30;99.90
54260;DHT22;40172;53.022;7.012;2024-03-08T12:51:38;9.30;99.90
54260;DHT22;40172;53.022;7.012;2024-03-08T12:54:07;9.30;99.90
54260;DHT22;40172;53.022;7.012;2024-03-08T12:56:34;9.40;99.90
54260;DHT22;40172;53.022;7.012;2024-03-08T12:59:01;9.50;99.90
54260;DHT22;40172;53.022;7.012;2024-03-08T13:01:27;9.50;99.90
54260;DHT22;40172;53.022;7.012;2024-03-08T13:03:53;9.60;99.90
54260;DHT22;40172;53.022;7.012;2024-03-08T13:06:19;9.70;99.90
54260;DHT22;40172;53.022;7.012;2024-03-08T13:08:52;9.70;99.90
54260;DHT22;40172;53.022;7.012;2024-03-08T13:11:19;9.80;99.90
54260;DHT22;40172;53.022;7.012;2024-03-08T13:13:45;9.80;99.90
54260;DHT22;40172;53.022;7.012;2024-03-08T13:16:11;9.90;99.90
54260;DHT22;40172;53.022;7.012;2024-03-08T13:18:41;9.90;99.90
54260;DHT22;40172;53.022;7.012;2024-03-08T13:21:12;9.90;99.90
54260;DHT22;40172;53.022;7.012;2024-03-08T13:23:41;9.90;99.90
54260;DHT22;40172;53.022;7.012;2024-03-08T13:26:13;10.00;99.90
54260;DHT22;40172;53.022;7.012;2024-03-08T13:28:50;10.00;99.90
54260;DHT22;40172;53.022;7.012;2024-03-08T13:31:19;10.10;99.90
54260;DHT22;40172;53.022;7.012;2024-03-08T13:33:45;10.10;99.90
54260;DHT22;40172;53.022;7.012;2024-03-08T13:36:12;10.00;99.90
54260;DHT22;40172;53.022;7.012;2024-03-08T13:41:09;10.00;99.90
54260;DHT22;40172;53.022;7.012;2024-03-08T13:43:34;10.00;99.90
54260;DHT22;40172;53.022;7.012;2024-03-08T13:46:02;10.00;99.90
54260;DHT22;40172;53.022;7.012;2024-03-08T13:48:28;10.00;99.90
54260;DHT22;40172;53.022;7.012;2024-03-08T13:50:53;10.00;99.90
54260;DHT22;40172;53.022;7.012;2024-03-08T13:53:20;10.00;99.90
54260;DHT22;40172;53.022;7.012;2024-03-08T13:55:46;10.00;99.90
54260;DHT22;40172;53.022;7.012;2024-03-08T13:58:12;10.00;99.90
54260;DHT22;40172;53.022;7.012;2024-03-08T14:00:40;10.00;99.90
54260;DHT22;40172;53.022;7.012;2024-03-08T14:03:06;10.00;99.90
54260;DHT22;40172;53.022;7.012;2024-03-08T14:05:32;10.10;99.90
54260;DHT22;40172;53.022;7.012;2024-03-08T14:08:01;10.10;99.90
54260;DHT22;40172;53.022;7.012;2024-03-08T14:10:29;10.10;99.90
54260;DHT22;40172;53.022;7.012;2024-03-08T14:12:57;10.10;99.90
54260;DHT22;40172;53.022;7.012;2024-03-08T14:15:23;10.10;99.90
54260;DHT22;40172;53.022;7.012;2024-03-08T14:17:54;10.20;99.90
54260;DHT22;40172;53.022;7.012;2024-03-08T14:20:19;10.10;99.90
54260;DHT22;40172;53.022;7.012;2024-03-08T14:22:45;10.00;99.90
54260;DHT22;40172;53.022;7.012;2024-03-08T14:25:11;10.00;99.90
54260;DHT22;40172;53.022;7.012;2024-03-08T14:27:46;10.00;99.90
54260;DHT22;40172;53.022;7.012;2024-03-08T14:30:12;10.00;99.90
54260;DHT22;40172;53.022;7.012;2024-03-08T14:32:38;10.00;99.90
54260;DHT22;40172;53.022;7.012;2024-03-08T14:35:05;9.90;99.90
54260;DHT22;40172;53.022;7.012;2024-03-08T14:37:31;9.90;99.90
54260;DHT22;40172;53.022;7.012;2024-03-08T14:39:57;9.90;99.90
54260;DHT22;40172;53.022;7.012;2024-03-08T14:42:22;9.80;99.90
54260;DHT22;40172;53.022;7.012;2024-03-08T14:44:48;9.80;99.90
54260;DHT22;40172;53.022;7.012;2024-03-08T14:47:18;9.80;99.90
54260;DHT22;40172;53.022;7.012;2024-03-08T14:49:43;9.80;99.90
54260;DHT22;40172;53.022;7.012;2024-03-08T14:52:09;9.70;99.90
54260;DHT22;40172;53.022;7.012;2024-03-08T14:54:54;9.60;99.90
54260;DHT22;40172;53.022;7.012;2024-03-08T14:57:20;9.60;99.90
54260;DHT22;40172;53.022;7.012;2024-03-08T14:59:45;9.60;99.90
54260;DHT22;40172;53.022;7.012;2024-03-08T15:02:11;9.60;99.90
54260;DHT22;40172;53.022;7.012;2024-03-08T15:04:36;9.60;99.90
54260;DHT22;40172;53.022;7.012;2024-03-08T15:07:03;9.60;99.90
54260;DHT22;40172;53.022;7.012;2024-03-08T15:09:31;9.60;99.90
54260;DHT22;40172;53.022;7.012;2024-03-08T15:12:06;9.60;99.90
54260;DHT22;40172;53.022;7.012;2024-03-08T15:14:32;9.50;99.90
54260;DHT22;40172;53.022;7.012;2024-03-08T15:16:58;9.50;99.90
54260;DHT22;40172;53.022;7.012;2024-03-08T15:19:24;9.50;99.90
54260;DHT22;40172;53.022;7.012;2024-03-08T15:21:50;9.50;99.90
54260;DHT22;40172;53.022;7.012;2024-03-08T15:24:20;9.50;99.90
54260;DHT22;40172;53.022;7.012;2024-03-08T15:26:48;9.50;99.90
54260;DHT22;40172;53.022;7.012;2024-03-08T15:29:20;9.40;99.90
54260;DHT22;40172;53.022;7.012;2024-03-08T15:31:52;9.50;99.90
54260;DHT22;40172;53.022;7.012;2024-03-08T15:34:19;9.40;99.90
54260;DHT22;40172;53.022;7.012;2024-03-08T15:36:49;9.40;99.90
54260;DHT22;40172;53.022;7.012;2024-03-08T15:39:17;9.40;99.90
54260;DHT22;40172;53.022;7.012;2024-03-08T15:41:43;9.40;99.90
54260;DHT22;40172;53.022;7.012;2024-03-08T15:44:10;9.40;99.90
54260;DHT22;40172;53.022;7.012;2024-03-08T15:46:38;9.40;99.90
54260;DHT22;40172;53.022;7.012;2024-03-08T15:49:05;9.30;99.90